createdAt,value
2018-09-05T00:01:11.015Z,3.87
2018-09-05T00:03:41.613Z,3.40
2018-09-05T00:06:11.454Z,3.50
2018-09-05T00:08:41.483Z,3.23
2018-09-05T00:11:11.502Z,3.47
2018-09-05T00:13:41.252Z,3.17
2018-09-05T00:16:11.197Z,3.23
2018-09-05T00:18:40.954Z,3.13
2018-09-05T00:21:10.651Z,3.10
2018-09-05T00:23:40.538Z,3.30
2018-09-05T00:26:10.377Z,3.63
2018-09-05T00:28:40.186Z,3.10
2018-09-05T00:31:11.321Z,3.40
2018-09-05T00:33:41.531Z,3.77
2018-09-05T00:36:11.552Z,4.53
2018-09-05T00:38:41.373Z,4.20
2018-09-05T00:41:11.404Z,4.17
2018-09-05T00:43:41.201Z,4.00
2018-09-05T00:46:10.967Z,4.23
2018-09-05T00:48:41.042Z,4.20
2018-09-05T00:51:10.828Z,3.43
2018-09-05T00:53:40.885Z,3.30
2018-09-05T00:56:10.663Z,3.53
2018-09-05T00:58:40.871Z,3.43
2018-09-05T01:01:10.860Z,3.30
2018-09-05T01:03:40.924Z,3.10
2018-09-05T01:06:10.849Z,3.20
2018-09-05T01:08:40.441Z,3.30
2018-09-05T01:11:10.402Z,3.33
2018-09-05T01:13:39.925Z,3.13
2018-09-05T01:16:09.620Z,2.90
2018-09-05T01:18:39.096Z,3.27
2018-09-05T01:21:09.123Z,3.03
2018-09-05T01:23:38.881Z,2.73
2018-09-05T01:26:08.399Z,3.13
2018-09-05T01:28:38.062Z,3.13
2018-09-05T01:31:07.700Z,3.20
2018-09-05T01:33:37.540Z,3.00
2018-09-05T01:36:12.838Z,3.70
2018-09-05T01:38:43.115Z,3.37
2018-09-05T01:41:13.973Z,3.40
2018-09-05T01:43:44.125Z,3.17
2018-09-05T01:46:13.682Z,2.50
2018-09-05T01:48:43.533Z,2.33
2018-09-05T01:51:13.171Z,2.83
2018-09-05T01:53:42.704Z,3.10
2018-09-05T01:56:12.467Z,2.60
2018-09-05T01:58:42.553Z,2.57
2018-09-05T02:01:12.227Z,2.70
2018-09-05T02:03:41.706Z,2.67
2018-09-05T02:06:11.514Z,2.30
2018-09-05T02:08:41.173Z,2.67
2018-09-05T02:11:10.880Z,2.63
2018-09-05T02:13:40.488Z,2.93
2018-09-05T02:16:10.023Z,2.57
2018-09-05T02:18:39.544Z,2.57
2018-09-05T02:21:09.265Z,2.80
2018-09-05T02:23:38.870Z,2.53
2018-09-05T02:26:08.589Z,2.60
2018-09-05T02:28:38.341Z,3.10
2018-09-05T02:31:08.281Z,2.93
2018-09-05T02:33:37.897Z,2.40
2018-09-05T02:36:07.740Z,2.30
2018-09-05T02:38:37.528Z,2.60
2018-09-05T02:41:07.282Z,2.37
2018-09-05T02:44:41.554Z,2.40
2018-09-05T02:47:11.293Z,2.70
2018-09-05T02:49:41.180Z,2.50
2018-09-05T02:52:10.630Z,2.53
2018-09-05T02:54:40.219Z,2.37
2018-09-05T02:57:09.835Z,3.00
2018-09-05T02:59:40.483Z,3.30
2018-09-05T03:02:10.268Z,2.30
2018-09-05T03:04:39.967Z,2.93
2018-09-05T03:07:09.466Z,3.10
2018-09-05T03:09:40.004Z,3.17
2018-09-05T03:12:09.938Z,3.50
2018-09-05T03:14:39.662Z,3.40
2018-09-05T03:17:09.477Z,3.53
2018-09-05T03:19:39.062Z,3.40
2018-09-05T03:22:08.846Z,3.93
2018-09-05T03:24:39.806Z,4.30
2018-09-05T03:27:09.347Z,3.97
2018-09-05T03:29:38.892Z,3.60
2018-09-05T03:32:09.457Z,3.80
2018-09-05T03:34:39.056Z,4.10
2018-09-05T03:37:09.004Z,3.87
2018-09-05T03:39:38.428Z,4.33
2018-09-05T03:42:07.975Z,4.10
2018-09-05T03:44:37.730Z,3.90
2018-09-05T03:47:08.488Z,7.00
2018-09-05T03:49:38.508Z,4.33
2018-09-05T03:52:09.389Z,4.00
2018-09-05T03:54:39.117Z,4.30
2018-09-05T03:57:08.978Z,4.33
2018-09-05T03:59:38.662Z,4.33
2018-09-05T04:02:08.712Z,4.43
2018-09-05T04:04:38.394Z,4.30
2018-09-05T04:07:08.058Z,4.40
2018-09-05T04:09:37.669Z,4.70
2018-09-05T04:12:07.291Z,4.43
2018-09-05T04:14:37.707Z,4.50
2018-09-05T04:17:07.601Z,4.00
2018-09-05T04:19:37.402Z,4.50
2018-09-05T04:22:07.858Z,4.43
2018-09-05T04:24:37.787Z,4.73
2018-09-05T04:27:07.512Z,4.17
2018-09-05T04:29:37.190Z,4.43
2018-09-05T04:32:06.980Z,4.90
2018-09-05T04:34:36.543Z,4.97
2018-09-05T04:37:06.369Z,4.53
2018-09-05T04:39:36.234Z,4.93
2018-09-05T04:42:05.790Z,5.20
2018-09-05T04:44:35.489Z,4.97
2018-09-05T04:47:05.364Z,4.57
2018-09-05T04:49:35.155Z,5.10
2018-09-05T04:52:04.879Z,5.50
2018-09-05T04:54:34.691Z,4.77
2018-09-05T04:57:04.850Z,4.57
2018-09-05T04:59:34.801Z,5.07
2018-09-05T05:02:04.358Z,4.50
2018-09-05T05:04:34.098Z,4.40
2018-09-05T05:07:03.887Z,3.40
2018-09-05T05:09:33.482Z,3.67
2018-09-05T05:12:03.074Z,4.40
2018-09-05T05:14:32.752Z,3.90
2018-09-05T05:17:02.717Z,3.97
2018-09-05T05:19:32.320Z,4.50
2018-09-05T05:22:01.872Z,4.30
2018-09-05T05:24:31.627Z,5.37
2018-09-05T05:27:01.230Z,10.87
2018-09-05T05:29:30.882Z,4.80
2018-09-05T05:32:00.544Z,5.13
2018-09-05T05:34:30.472Z,5.83
2018-09-05T05:37:01.284Z,5.80
2018-09-05T05:39:30.988Z,4.70
2018-09-05T05:42:00.607Z,5.87
2018-09-05T05:44:30.076Z,7.50
2018-09-05T05:46:59.722Z,7.87
2018-09-05T05:49:29.334Z,7.87
2018-09-05T05:51:58.913Z,4.87
2018-09-05T05:54:28.604Z,4.33
2018-09-05T05:56:58.485Z,4.73
2018-09-05T05:59:28.130Z,3.77
2018-09-05T06:01:57.890Z,4.57
2018-09-05T06:04:27.612Z,3.70
2018-09-05T06:06:57.290Z,4.17
2018-09-05T06:09:26.874Z,3.73
2018-09-05T06:11:56.656Z,4.27
2018-09-05T06:14:26.334Z,3.90
2018-09-05T06:16:56.095Z,5.00
2018-09-05T06:19:25.763Z,4.23
2018-09-05T06:21:56.446Z,5.10
2018-09-05T06:24:26.155Z,4.63
2018-09-05T06:26:55.752Z,3.90
2018-09-05T06:29:25.478Z,4.43
2018-09-05T06:31:55.167Z,3.73
2018-09-05T06:34:24.806Z,3.93
2018-09-05T06:36:54.755Z,4.30
2018-09-05T06:39:24.307Z,3.93
2018-09-05T06:41:54.238Z,4.67
2018-09-05T06:44:24.126Z,3.97
2018-09-05T06:46:53.977Z,7.93
2018-09-05T06:49:23.650Z,3.90
2018-09-05T06:51:53.166Z,4.33
2018-09-05T06:54:22.778Z,3.93
2018-09-05T06:56:52.841Z,4.00
2018-09-05T06:59:22.838Z,4.70
2018-09-05T07:01:52.602Z,4.40
2018-09-05T07:04:22.396Z,3.93
2018-09-05T07:06:52.092Z,3.97
2018-09-05T07:09:21.925Z,4.20
2018-09-05T07:11:52.373Z,4.63
2018-09-05T07:14:22.059Z,4.87
2018-09-05T07:16:51.747Z,4.57
2018-09-05T07:19:21.532Z,3.60
2018-09-05T07:21:51.156Z,4.20
2018-09-05T07:24:20.812Z,5.23
2018-09-05T07:26:50.407Z,5.30
2018-09-05T07:29:19.989Z,7.00
2018-09-05T07:31:49.780Z,4.47
2018-09-05T07:34:19.421Z,4.10
2018-09-05T07:36:49.089Z,4.20
2018-09-05T07:39:18.602Z,4.23
2018-09-05T07:41:48.214Z,4.20
2018-09-05T07:44:17.962Z,4.60
2018-09-05T07:46:47.651Z,4.50
2018-09-05T07:49:17.360Z,5.73
2018-09-05T07:51:47.230Z,4.23
2018-09-05T07:54:17.110Z,3.80
2018-09-05T07:56:47.203Z,4.73
2018-09-05T07:59:17.318Z,4.40
2018-09-05T08:01:46.954Z,4.47
2018-09-05T08:04:17.136Z,3.40
2018-09-05T08:06:46.748Z,4.37
2018-09-05T08:09:16.669Z,4.23
2018-09-05T08:11:46.405Z,3.60
2018-09-05T08:14:16.123Z,3.30
2018-09-05T08:16:45.708Z,3.63
2018-09-05T08:19:15.362Z,3.80
2018-09-05T08:21:45.086Z,3.13
2018-09-05T08:24:14.976Z,3.70
2018-09-05T08:26:44.584Z,3.80
2018-09-05T08:29:14.451Z,2.50
2018-09-05T08:31:45.372Z,3.27
2018-09-05T08:34:15.280Z,3.63
2018-09-05T08:36:45.998Z,3.30
2018-09-05T08:39:16.033Z,3.33
2018-09-05T08:41:45.962Z,3.23
2018-09-05T08:44:47.022Z,3.13
2018-09-05T08:47:16.882Z,3.60
2018-09-05T08:49:46.772Z,2.83
2018-09-05T08:52:16.813Z,2.40
2018-09-05T08:54:46.359Z,3.43
2018-09-05T08:57:16.269Z,2.57
2018-09-05T08:59:46.261Z,2.40
2018-09-05T09:02:16.661Z,2.20
2018-09-05T09:04:46.434Z,2.63
2018-09-05T09:07:16.301Z,2.50
2018-09-05T09:09:46.386Z,3.20
2018-09-05T09:12:16.380Z,3.10
2018-09-05T09:14:46.021Z,3.10
2018-09-05T09:17:15.524Z,2.13
2018-09-05T09:19:45.218Z,3.40
2018-09-05T09:22:15.036Z,2.50
2018-09-05T09:24:45.219Z,3.10
2018-09-05T09:27:15.963Z,2.97
2018-09-05T09:29:45.870Z,3.73
2018-09-05T09:32:15.525Z,3.07
2018-09-05T09:34:45.119Z,2.83
2018-09-05T09:37:14.749Z,3.37
2018-09-05T09:39:44.584Z,2.73
2018-09-05T09:42:14.443Z,2.50
2018-09-05T09:44:44.426Z,2.60
2018-09-05T09:47:14.382Z,3.00
2018-09-05T09:49:44.113Z,4.07
2018-09-05T09:52:20.051Z,4.87
2018-09-05T09:54:51.416Z,3.83
2018-09-05T09:57:21.994Z,3.00
2018-09-05T09:59:52.007Z,2.57
2018-09-05T10:02:26.590Z,2.60
2018-09-05T10:05:01.204Z,2.80
2018-09-05T10:07:35.751Z,4.03
2018-09-05T10:10:10.501Z,3.77
2018-09-05T10:12:47.650Z,3.40
2018-09-05T10:15:22.407Z,4.93
2018-09-05T10:17:56.901Z,2.80
2018-09-05T10:20:26.832Z,3.47
2018-09-05T10:22:56.571Z,4.93
2018-09-05T10:25:26.168Z,3.10
2018-09-05T10:27:55.730Z,3.00
2018-09-05T10:30:25.795Z,3.50
2018-09-05T10:32:55.550Z,3.30
2018-09-05T10:35:25.364Z,3.20
2018-09-05T10:37:55.293Z,3.03
2018-09-05T10:40:25.071Z,3.80
2018-09-05T10:42:54.794Z,3.40
2018-09-05T10:45:24.648Z,3.37
2018-09-05T10:47:54.521Z,4.10
2018-09-05T10:50:24.272Z,4.63
2018-09-05T10:52:54.317Z,4.13
2018-09-05T10:55:23.957Z,4.03
2018-09-05T10:57:53.681Z,4.53
2018-09-05T11:00:23.221Z,7.80
2018-09-05T11:02:53.336Z,6.43
2018-09-05T11:05:23.175Z,3.37
2018-09-05T11:07:53.041Z,6.27
2018-09-05T11:10:22.982Z,2.70
2018-09-05T11:12:52.488Z,3.30
2018-09-05T11:15:22.552Z,2.90
2018-09-05T11:17:52.308Z,3.30
2018-09-05T11:20:21.954Z,6.70
2018-09-05T11:22:51.988Z,4.23
2018-09-05T11:25:21.788Z,4.23
2018-09-05T11:27:51.463Z,3.40
2018-09-05T11:30:21.358Z,4.00
2018-09-05T11:32:51.297Z,3.80
2018-09-05T11:35:21.003Z,3.33
2018-09-05T11:37:50.809Z,4.67
2018-09-05T11:40:20.764Z,4.43
2018-09-05T11:42:50.348Z,3.77
2018-09-05T11:45:19.875Z,4.30
2018-09-05T11:47:49.865Z,3.37
2018-09-05T11:50:19.602Z,3.63
2018-09-05T11:52:49.186Z,2.70
2018-09-05T11:55:18.787Z,3.30
2018-09-05T11:57:48.762Z,4.37
2018-09-05T12:00:18.609Z,3.63
2018-09-05T12:02:48.573Z,3.27
2018-09-05T12:05:18.443Z,3.47
2018-09-05T12:07:48.223Z,4.33
2018-09-05T12:10:18.178Z,5.73
2018-09-05T12:12:47.984Z,3.20
2018-09-05T12:15:17.880Z,3.03
2018-09-05T12:17:48.044Z,7.00
2018-09-05T12:20:17.528Z,4.00
2018-09-05T12:22:46.968Z,3.03
2018-09-05T12:25:16.716Z,2.80
2018-09-05T12:27:46.510Z,3.07
2018-09-05T12:30:16.351Z,3.50
2018-09-05T12:32:45.981Z,3.00
2018-09-05T12:35:15.513Z,4.13
2018-09-05T12:37:45.111Z,2.73
2018-09-05T12:40:14.838Z,3.17
2018-09-05T12:42:44.622Z,4.60
2018-09-05T12:45:14.331Z,3.20
2018-09-05T12:47:43.903Z,3.00
2018-09-05T12:50:13.560Z,3.30
2018-09-05T12:52:43.148Z,5.03
2018-09-05T12:55:12.956Z,4.50
2018-09-05T12:57:42.537Z,3.20
2018-09-05T13:00:12.106Z,2.90
2018-09-05T13:02:41.660Z,3.07
2018-09-05T13:05:12.408Z,3.37
2018-09-05T13:07:41.787Z,3.30
2018-09-05T13:10:11.390Z,3.53
2018-09-05T13:12:41.293Z,3.40
2018-09-05T13:15:11.147Z,3.23
2018-09-05T13:17:40.800Z,4.50
2018-09-05T13:20:10.440Z,5.70
2018-09-05T13:22:40.353Z,3.83
2018-09-05T13:25:10.934Z,3.90
2018-09-05T13:27:40.674Z,3.50
2018-09-05T13:30:47.413Z,3.40
2018-09-05T13:33:16.928Z,3.27
2018-09-05T13:35:46.543Z,3.73
2018-09-05T13:38:16.491Z,6.37
2018-09-05T13:40:46.284Z,4.90
2018-09-05T13:43:15.831Z,4.00
2018-09-05T13:45:45.295Z,4.93
2018-09-05T13:48:14.818Z,4.70
2018-09-05T13:50:44.464Z,3.95
2018-09-05T13:53:13.942Z,3.80
2018-09-05T13:55:43.435Z,5.13
2018-09-05T13:58:13.038Z,5.10
2018-09-05T14:00:42.723Z,4.80
2018-09-05T14:03:12.602Z,3.33
2018-09-05T14:05:43.118Z,5.63
2018-09-05T14:08:13.718Z,3.63
2018-09-05T14:10:43.415Z,3.90
2018-09-05T14:13:13.151Z,4.60
2018-09-05T14:15:43.079Z,4.77
2018-09-05T14:18:12.635Z,3.93
2018-09-05T14:20:42.366Z,3.77
2018-09-05T14:23:11.877Z,3.70
2018-09-05T14:25:42.291Z,6.00
2018-09-05T14:28:11.851Z,4.73
2018-09-05T14:30:41.733Z,5.77
2018-09-05T14:33:12.636Z,5.70
2018-09-05T14:35:42.158Z,4.43
2018-09-05T14:38:11.727Z,5.30
2018-09-05T14:40:41.380Z,4.43
2018-09-05T14:43:11.522Z,4.30
2018-09-05T14:45:41.072Z,4.40
2018-09-05T14:48:11.012Z,4.60
2018-09-05T14:50:40.858Z,4.80
2018-09-05T14:53:10.518Z,5.67
2018-09-05T14:55:40.063Z,5.10
2018-09-05T14:58:09.456Z,4.77
2018-09-05T15:00:38.988Z,5.13
2018-09-05T15:03:08.641Z,5.10
2018-09-05T15:05:38.430Z,5.23
2018-09-05T15:08:08.081Z,5.10
2018-09-05T15:10:37.974Z,5.60
2018-09-05T15:13:07.867Z,5.03
2018-09-05T15:15:37.711Z,5.83
2018-09-05T15:18:07.524Z,5.00
2018-09-05T15:20:37.012Z,4.83
2018-09-05T15:23:07.112Z,5.17
2018-09-05T15:25:36.784Z,5.93
2018-09-05T15:28:06.375Z,4.97
2018-09-05T15:30:35.846Z,5.03
2018-09-05T15:33:05.392Z,4.20
2018-09-05T15:35:35.522Z,4.93
2018-09-05T15:38:05.057Z,5.00
2018-09-05T15:40:35.188Z,5.10
2018-09-05T15:43:05.118Z,4.80
2018-09-05T15:45:34.666Z,5.07
2018-09-05T15:48:04.233Z,5.37
2018-09-05T15:50:33.852Z,5.70
2018-09-05T15:53:03.337Z,5.43
2018-09-05T15:55:33.077Z,7.17
2018-09-05T15:58:02.991Z,7.47
2018-09-05T16:00:32.400Z,5.90
2018-09-05T16:03:03.120Z,6.50
2018-09-05T16:05:32.578Z,6.50
2018-09-05T16:08:02.105Z,6.03
2018-09-05T16:10:31.530Z,6.30
2018-09-05T16:13:01.010Z,6.50
2018-09-05T16:15:31.479Z,6.13
2018-09-05T16:18:01.335Z,6.47
2018-09-05T16:20:30.924Z,6.17
2018-09-05T16:23:00.805Z,6.07
2018-09-05T16:25:30.875Z,5.93
2018-09-05T16:28:00.649Z,5.87
2018-09-05T16:30:30.259Z,6.23
2018-09-05T16:32:59.959Z,6.23
2018-09-05T16:35:29.422Z,6.30
2018-09-05T16:37:59.531Z,5.93
2018-09-05T16:40:29.300Z,5.63
2018-09-05T16:42:58.859Z,6.03
2018-09-05T16:45:28.415Z,6.80
2018-09-05T16:47:57.963Z,6.90
2018-09-05T16:50:27.735Z,7.00
2018-09-05T16:52:57.636Z,7.57
2018-09-05T16:55:28.139Z,7.37
2018-09-05T16:57:57.705Z,7.37
2018-09-05T17:00:27.680Z,7.37
2018-09-05T17:02:57.603Z,6.67
2018-09-05T17:05:27.101Z,6.10
2018-09-05T17:07:56.677Z,6.20
2018-09-05T17:10:26.971Z,6.00
2018-09-05T17:12:56.598Z,7.43
2018-09-05T17:15:26.136Z,6.53
2018-09-05T17:17:55.708Z,7.70
2018-09-05T17:20:25.256Z,9.73
2018-09-05T17:22:55.104Z,6.97
2018-09-05T17:25:25.555Z,6.83
2018-09-05T17:27:55.592Z,7.17
2018-09-05T17:30:25.578Z,7.43
2018-09-05T17:32:55.363Z,7.23
2018-09-05T17:35:25.139Z,6.80
2018-09-05T17:37:55.043Z,7.00
2018-09-05T17:40:24.945Z,10.00
2018-09-05T17:42:54.745Z,8.67
2018-09-05T17:45:24.643Z,9.63
2018-09-05T17:47:54.601Z,10.73
2018-09-05T17:50:24.521Z,8.50
2018-09-05T17:52:55.232Z,8.70
2018-09-05T17:55:25.063Z,9.03
2018-09-05T17:57:55.134Z,12.73
2018-09-05T18:00:25.023Z,11.73
2018-09-05T18:02:55.041Z,11.80
2018-09-05T18:05:24.971Z,9.13
2018-09-05T18:07:55.044Z,7.90
2018-09-05T18:10:24.942Z,8.43
2018-09-05T18:14:19.332Z,13.63
2018-09-05T18:16:49.350Z,10.30
2018-09-05T18:19:19.742Z,9.37
2018-09-05T18:21:49.585Z,8.30
2018-09-05T18:24:19.514Z,9.00
2018-09-05T18:26:50.050Z,9.00
2018-09-05T18:29:20.278Z,8.63
2018-09-05T18:31:50.111Z,9.70
2018-09-05T18:34:21.614Z,10.93
2018-09-05T18:36:51.729Z,10.60
2018-09-05T18:39:22.826Z,10.70
2018-09-05T18:41:52.725Z,10.33
2018-09-05T18:44:22.575Z,9.90
2018-09-05T18:46:54.250Z,10.57
2018-09-05T18:49:24.104Z,10.90
2018-09-05T18:51:54.153Z,11.00
2018-09-05T18:54:25.557Z,10.37
2018-09-05T18:56:56.126Z,10.50
2018-09-05T18:59:26.048Z,10.67
2018-09-05T19:01:56.207Z,10.90
2018-09-05T19:04:26.387Z,11.27
2018-09-05T19:06:57.101Z,10.00
2018-09-05T19:09:27.103Z,10.37
2018-09-05T19:11:58.041Z,9.73
2018-09-05T19:14:28.230Z,10.10
2018-09-05T19:16:58.063Z,11.47
2018-09-05T19:19:28.945Z,12.60
2018-09-05T19:21:58.851Z,11.23
2018-09-05T19:24:28.744Z,13.03
2018-09-05T19:26:58.689Z,12.10
2018-09-05T19:29:28.409Z,9.30
2018-09-05T19:31:59.217Z,9.27
2018-09-05T19:34:29.453Z,9.67
2018-09-05T19:36:59.428Z,8.77
2018-09-05T19:39:29.009Z,8.93
2018-09-05T19:41:59.425Z,9.53
2018-09-05T19:44:28.912Z,9.73
2018-09-05T19:46:58.449Z,8.90
2018-09-05T19:49:27.996Z,8.63
2018-09-05T19:51:57.496Z,10.17
2018-09-05T19:54:27.085Z,9.97
2018-09-05T19:56:56.849Z,10.33
2018-09-05T19:59:26.640Z,10.20
2018-09-05T20:01:56.462Z,8.63
2018-09-05T20:04:26.294Z,10.03
2018-09-05T20:06:56.447Z,9.80
2018-09-05T20:09:25.960Z,9.17
2018-09-05T20:11:55.431Z,9.67
2018-09-05T20:14:24.921Z,8.40
2018-09-05T20:16:54.810Z,8.77
2018-09-05T20:19:24.625Z,8.30
2018-09-05T20:21:54.263Z,8.17
2018-09-05T20:24:23.739Z,8.60
2018-09-05T20:26:53.217Z,7.97
2018-09-05T20:29:22.611Z,8.63
2018-09-05T20:31:52.092Z,7.73
2018-09-05T20:34:21.859Z,7.77
2018-09-05T20:36:51.582Z,8.50
2018-09-05T20:39:21.351Z,8.93
2018-09-05T20:41:50.837Z,9.20
2018-09-05T20:44:20.595Z,9.60
2018-09-05T20:46:49.971Z,8.30
2018-09-05T20:49:19.438Z,8.50
2018-09-05T20:51:49.031Z,9.07
2018-09-05T20:54:18.516Z,14.10
2018-09-05T20:56:48.006Z,9.40
2018-09-05T20:59:17.489Z,8.57
2018-09-05T21:01:47.004Z,9.00
2018-09-05T21:04:16.573Z,9.10
2018-09-05T21:06:46.018Z,11.43
2018-09-05T21:09:15.503Z,8.80
2018-09-05T21:11:45.078Z,8.37
2018-09-05T21:14:14.457Z,9.67
2018-09-05T21:16:44.169Z,9.50
2018-09-05T21:19:13.885Z,10.03
2018-09-05T21:21:43.713Z,9.93
2018-09-05T21:24:13.480Z,9.83
2018-09-05T21:26:42.930Z,9.77
2018-09-05T21:29:12.623Z,9.73
2018-09-05T21:31:42.122Z,9.40
2018-09-05T21:34:11.629Z,9.73
2018-09-05T21:36:41.007Z,8.57
2018-09-05T21:39:10.810Z,9.00
2018-09-05T21:41:40.204Z,8.30
2018-09-05T21:44:10.051Z,9.23
2018-09-05T21:46:39.631Z,8.47
2018-09-05T21:49:09.170Z,8.13
2018-09-05T21:51:38.617Z,8.47
2018-09-05T21:54:08.187Z,10.90
2018-09-05T21:56:37.545Z,10.93
2018-09-05T21:59:07.216Z,9.73
2018-09-05T22:01:36.691Z,9.07
2018-09-05T22:04:06.251Z,9.40
2018-09-05T22:06:35.944Z,8.60
2018-09-05T22:09:07.770Z,8.47
2018-09-05T22:11:37.498Z,8.40
2018-09-05T22:14:06.884Z,8.33
2018-09-05T22:16:36.529Z,8.47
2018-09-05T22:19:06.111Z,8.67
2018-09-05T22:21:35.655Z,7.97
2018-09-05T22:24:05.457Z,8.63
2018-09-05T22:26:35.091Z,8.57
2018-09-05T22:29:04.762Z,9.07
2018-09-05T22:31:34.249Z,8.17
2018-09-05T22:34:03.787Z,8.20
2018-09-05T22:36:33.358Z,8.83
2018-09-05T22:39:03.007Z,9.60
2018-09-05T22:41:32.496Z,11.10
2018-09-05T22:44:12.992Z,11.40
2018-09-05T22:46:53.352Z,9.00
2018-09-05T22:50:05.761Z,9.77
2018-09-05T22:52:57.451Z,11.73
2018-09-05T22:57:46.743Z,10.13
2018-09-05T23:00:32.981Z,9.40
2018-09-05T23:06:15.091Z,9.20
2018-09-05T23:08:45.654Z,9.27
2018-09-05T23:11:25.969Z,9.67
2018-09-05T23:14:11.414Z,9.37
2018-09-05T23:21:02.686Z,10.47
2018-09-05T23:23:43.047Z,9.37
2018-09-05T23:26:12.792Z,10.20
2018-09-05T23:28:42.410Z,11.33
2018-09-05T23:31:11.930Z,11.17
2018-09-05T23:33:42.350Z,10.53
2018-09-05T23:36:11.797Z,10.93
2018-09-05T23:38:41.389Z,11.37
2018-09-05T23:41:11.043Z,11.27
2018-09-05T23:43:41.162Z,9.77
2018-09-05T23:46:11.577Z,9.93
2018-09-05T23:48:41.061Z,9.97
2018-09-05T23:51:10.459Z,11.07
2018-09-05T23:53:43.618Z,10.80
2018-09-05T23:56:13.109Z,8.30
2018-09-05T23:58:42.586Z,7.53
